createdAt,value
2017-07-05T00:00:18.857Z,3.90
2017-07-05T00:02:46.340Z,4.57
2017-07-05T00:05:13.630Z,4.20
2017-07-05T00:07:41.032Z,3.87
2017-07-05T00:10:08.365Z,4.43
2017-07-05T00:12:35.724Z,3.97
2017-07-05T00:15:03.326Z,3.57
2017-07-05T00:17:30.651Z,3.90
2017-07-05T00:19:57.936Z,3.50
2017-07-05T00:22:25.272Z,3.90
2017-07-05T00:24:52.571Z,3.90
2017-07-05T00:27:19.891Z,4.07
2017-07-05T00:29:47.187Z,4.20
2017-07-05T00:32:14.489Z,3.87
2017-07-05T00:34:41.771Z,4.10
2017-07-05T00:37:11.066Z,3.70
2017-07-05T00:39:38.402Z,3.83
2017-07-05T00:42:05.733Z,3.60
2017-07-05T00:44:33.050Z,3.73
2017-07-05T00:47:00.429Z,3.60
2017-07-05T00:49:27.733Z,3.63
2017-07-05T00:51:55.052Z,3.83
2017-07-05T00:54:23.280Z,3.70
2017-07-05T00:56:50.582Z,3.90
2017-07-05T00:59:17.884Z,3.90
2017-07-05T01:01:45.198Z,4.00
2017-07-05T01:04:12.585Z,3.90
2017-07-05T01:06:39.878Z,3.80
2017-07-05T01:09:07.230Z,3.40
2017-07-05T01:11:34.543Z,4.17
2017-07-05T01:14:01.876Z,3.70
2017-07-05T01:16:29.166Z,3.70
2017-07-05T01:18:56.458Z,3.83
2017-07-05T01:21:23.768Z,3.90
2017-07-05T01:23:51.064Z,3.63
2017-07-05T01:26:18.410Z,3.60
2017-07-05T01:28:45.727Z,3.93
2017-07-05T01:31:13.032Z,3.80
2017-07-05T01:33:40.342Z,3.73
2017-07-05T01:36:07.667Z,3.60
2017-07-05T01:38:34.997Z,3.43
2017-07-05T01:41:02.328Z,3.80
2017-07-05T01:43:29.619Z,3.63
2017-07-05T01:45:56.937Z,4.13
2017-07-05T01:48:24.252Z,3.80
2017-07-05T01:50:51.555Z,3.80
2017-07-05T01:53:19.124Z,3.93
2017-07-05T01:55:46.435Z,3.67
2017-07-05T01:58:13.745Z,3.70
2017-07-05T02:00:41.171Z,3.93
2017-07-05T02:03:08.487Z,4.00
2017-07-05T02:05:35.777Z,3.80
2017-07-05T02:08:03.109Z,4.20
2017-07-05T02:10:30.397Z,3.97
2017-07-05T02:12:57.717Z,3.80
2017-07-05T02:15:25.012Z,3.60
2017-07-05T02:17:52.369Z,4.10
2017-07-05T02:20:19.693Z,3.60
2017-07-05T02:22:47.014Z,4.27
2017-07-05T02:25:14.296Z,4.20
2017-07-05T02:27:41.619Z,4.00
2017-07-05T02:30:08.967Z,3.77
2017-07-05T02:32:36.272Z,3.70
2017-07-05T02:35:03.604Z,3.80
2017-07-05T02:37:30.933Z,3.97
2017-07-05T02:39:58.241Z,4.33
2017-07-05T02:42:25.546Z,4.20
2017-07-05T02:44:52.852Z,4.33
2017-07-05T02:47:20.200Z,4.90
2017-07-05T02:49:47.556Z,3.77
2017-07-05T02:52:14.859Z,4.07
2017-07-05T02:54:42.333Z,4.23
2017-07-05T02:57:09.677Z,4.10
2017-07-05T02:59:37.027Z,4.20
2017-07-05T03:02:04.332Z,3.90
2017-07-05T03:04:31.700Z,4.20
2017-07-05T03:06:59.675Z,4.03
2017-07-05T03:09:27.396Z,4.63
2017-07-05T03:11:54.760Z,4.03
2017-07-05T03:14:22.119Z,4.03
2017-07-05T03:16:49.432Z,4.30
2017-07-05T03:19:16.763Z,4.60
2017-07-05T03:21:44.112Z,4.03
2017-07-05T03:24:11.451Z,4.20
2017-07-05T03:26:38.808Z,4.20
2017-07-05T03:29:06.141Z,3.93
2017-07-05T03:31:33.516Z,4.40
2017-07-05T03:34:00.828Z,4.30
2017-07-05T03:36:28.170Z,3.90
2017-07-05T03:38:55.467Z,4.10
2017-07-05T03:41:22.781Z,4.50
2017-07-05T03:43:50.068Z,4.30
2017-07-05T03:46:17.413Z,4.50
2017-07-05T03:48:44.733Z,4.47
2017-07-05T03:51:12.055Z,4.10
2017-07-05T03:53:39.355Z,4.10
2017-07-05T03:56:06.663Z,3.87
2017-07-05T03:58:33.959Z,4.60
2017-07-05T04:01:01.261Z,4.17
2017-07-05T04:03:28.603Z,4.50
2017-07-05T04:05:55.918Z,4.30
2017-07-05T04:08:23.224Z,4.20
2017-07-05T04:10:50.529Z,4.83
2017-07-05T04:13:17.869Z,5.50
2017-07-05T04:15:45.189Z,4.50
2017-07-05T04:18:12.542Z,4.57
2017-07-05T04:20:39.862Z,4.50
2017-07-05T04:23:07.189Z,4.93
2017-07-05T04:25:34.575Z,5.10
2017-07-05T04:28:01.935Z,4.90
2017-07-05T04:30:29.250Z,4.60
2017-07-05T04:32:56.582Z,4.80
2017-07-05T04:35:23.898Z,5.63
2017-07-05T04:37:51.219Z,4.90
2017-07-05T04:40:18.523Z,5.20
2017-07-05T04:42:45.823Z,5.47
2017-07-05T04:45:13.140Z,5.30
2017-07-05T04:47:40.458Z,5.37
2017-07-05T04:50:08.687Z,5.20
2017-07-05T04:52:35.998Z,5.47
2017-07-05T04:55:03.324Z,5.37
2017-07-05T04:57:30.634Z,5.10
2017-07-05T04:59:57.970Z,4.97
2017-07-05T05:02:25.290Z,5.43
2017-07-05T05:04:52.636Z,6.30
2017-07-05T05:07:19.963Z,5.87
2017-07-05T05:09:47.265Z,5.53
2017-07-05T05:12:15.631Z,5.40
2017-07-05T05:14:42.954Z,5.40
2017-07-05T05:17:11.098Z,6.20
2017-07-05T05:19:38.411Z,5.93
2017-07-05T05:22:05.726Z,5.63
2017-07-05T05:24:33.026Z,6.10
2017-07-05T05:27:00.441Z,7.70
2017-07-05T05:29:27.797Z,5.73
2017-07-05T05:31:55.196Z,5.73
2017-07-05T05:34:22.486Z,5.40
2017-07-05T05:36:49.822Z,5.40
2017-07-05T05:39:17.214Z,4.90
2017-07-05T05:41:44.533Z,4.23
2017-07-05T05:44:11.820Z,4.20
2017-07-05T05:46:39.135Z,4.50
2017-07-05T05:49:06.505Z,4.67
2017-07-05T05:51:33.795Z,5.00
2017-07-05T05:54:01.506Z,4.93
2017-07-05T05:56:28.833Z,4.83
2017-07-05T05:58:56.626Z,4.47
2017-07-05T06:01:24.550Z,4.87
2017-07-05T06:03:52.004Z,4.60
2017-07-05T06:06:19.332Z,4.40
2017-07-05T06:08:46.704Z,4.97
2017-07-05T06:11:15.281Z,4.77
2017-07-05T06:13:42.611Z,4.50
2017-07-05T06:16:09.926Z,4.37
2017-07-05T06:18:37.277Z,4.97
2017-07-05T06:21:04.625Z,4.70
2017-07-05T06:23:34.917Z,4.47
2017-07-05T06:26:02.302Z,4.60
2017-07-05T06:28:29.604Z,3.90
2017-07-05T06:30:59.257Z,4.33
2017-07-05T06:33:26.568Z,4.13
2017-07-05T06:35:53.886Z,4.73
2017-07-05T06:38:21.207Z,4.13
2017-07-05T06:40:48.534Z,4.67
2017-07-05T06:43:15.996Z,5.07
2017-07-05T06:45:43.302Z,4.10
2017-07-05T06:48:10.598Z,4.70
2017-07-05T06:50:37.921Z,4.50
2017-07-05T06:53:06.134Z,4.30
2017-07-05T06:55:33.505Z,4.27
2017-07-05T06:58:00.765Z,4.27
2017-07-05T07:00:28.110Z,4.80
2017-07-05T07:02:55.597Z,4.63
2017-07-05T07:05:23.180Z,4.70
2017-07-05T07:07:50.489Z,4.50
2017-07-05T07:10:17.780Z,4.60
2017-07-05T07:12:46.351Z,4.53
2017-07-05T07:15:13.681Z,4.43
2017-07-05T07:17:44.591Z,4.87
2017-07-05T07:20:11.902Z,4.50
2017-07-05T07:22:39.212Z,4.40
2017-07-05T07:25:06.535Z,4.43
2017-07-05T07:27:33.831Z,4.90
2017-07-05T07:30:01.129Z,5.03
2017-07-05T07:32:28.487Z,5.23
2017-07-05T07:34:56.769Z,4.83
2017-07-05T07:37:24.061Z,4.60
2017-07-05T07:39:51.435Z,4.90
2017-07-05T07:42:18.725Z,5.00
2017-07-05T07:44:46.038Z,5.30
2017-07-05T07:47:13.333Z,5.27
2017-07-05T07:49:40.660Z,4.80
2017-07-05T07:52:08.009Z,6.27
2017-07-05T07:54:35.318Z,5.80
2017-07-05T07:57:03.623Z,6.57
2017-07-05T07:59:30.986Z,6.00
2017-07-05T08:02:01.593Z,6.30
2017-07-05T08:04:28.941Z,5.77
2017-07-05T08:06:56.252Z,5.40
2017-07-05T08:09:25.142Z,5.03
2017-07-05T08:11:52.469Z,5.43
2017-07-05T08:14:19.802Z,4.90
2017-07-05T08:16:50.870Z,5.30
2017-07-05T08:19:18.181Z,5.67
2017-07-05T08:21:45.824Z,4.87
2017-07-05T08:24:13.170Z,5.63
2017-07-05T08:26:41.077Z,5.40
2017-07-05T08:29:08.368Z,5.20
2017-07-05T08:31:35.714Z,5.50
2017-07-05T08:34:03.048Z,4.90
2017-07-05T08:36:30.389Z,4.97
2017-07-05T08:39:01.578Z,5.13
2017-07-05T08:41:28.907Z,5.47
2017-07-05T08:43:56.199Z,5.30
2017-07-05T08:46:23.526Z,5.10
2017-07-05T08:48:50.850Z,5.47
2017-07-05T08:51:18.269Z,5.00
2017-07-05T08:53:45.562Z,5.20
2017-07-05T08:56:16.147Z,4.83
2017-07-05T08:58:43.453Z,4.80
2017-07-05T09:01:10.839Z,4.87
2017-07-05T09:03:38.200Z,5.00
2017-07-05T09:06:06.901Z,5.00
2017-07-05T09:08:34.250Z,5.27
2017-07-05T09:11:01.544Z,5.10
2017-07-05T09:13:28.880Z,5.10
2017-07-05T09:15:56.177Z,5.00
2017-07-05T09:18:23.514Z,4.90
2017-07-05T09:20:50.813Z,4.70
2017-07-05T09:23:18.142Z,4.40
2017-07-05T09:25:46.722Z,4.67
2017-07-05T09:28:14.033Z,4.67
2017-07-05T09:30:42.927Z,4.60
2017-07-05T09:33:11.445Z,4.30
2017-07-05T09:35:41.639Z,4.17
2017-07-05T09:38:08.960Z,4.67
2017-07-05T09:40:37.622Z,4.77
2017-07-05T09:43:05.101Z,4.80
2017-07-05T09:45:32.418Z,5.03
2017-07-05T09:47:59.714Z,4.50
2017-07-05T09:50:27.034Z,4.80
2017-07-05T09:52:54.328Z,5.10
2017-07-05T09:55:21.639Z,5.57
2017-07-05T09:57:48.955Z,5.73
2017-07-05T10:00:17.620Z,5.50
2017-07-05T10:02:44.944Z,5.70
2017-07-05T10:05:12.247Z,5.50
2017-07-05T10:07:39.556Z,5.03
2017-07-05T10:10:06.873Z,6.00
2017-07-05T10:12:34.198Z,5.93
2017-07-05T10:15:01.553Z,5.60
2017-07-05T10:17:28.869Z,6.20
2017-07-05T10:19:56.165Z,5.60
2017-07-05T10:22:23.471Z,6.20
2017-07-05T10:24:50.802Z,6.23
2017-07-05T10:27:19.452Z,6.07
2017-07-05T10:29:46.829Z,6.07
2017-07-05T10:32:14.194Z,5.50
2017-07-05T10:34:41.480Z,5.93
2017-07-05T10:37:08.802Z,6.43
2017-07-05T10:39:36.164Z,6.53
2017-07-05T10:42:03.473Z,6.10
2017-07-05T10:44:30.769Z,5.40
2017-07-05T10:46:59.642Z,5.00
2017-07-05T10:49:26.970Z,5.50
2017-07-05T10:51:54.296Z,5.40
2017-07-05T10:54:21.600Z,5.50
2017-07-05T10:56:49.833Z,5.90
2017-07-05T10:59:17.169Z,5.70
2017-07-05T11:01:44.518Z,5.07
2017-07-05T11:04:11.858Z,5.73
2017-07-05T11:06:39.179Z,5.33
2017-07-05T11:09:08.401Z,5.00
2017-07-05T11:11:35.726Z,4.90
2017-07-05T11:14:03.054Z,5.60
2017-07-05T11:16:30.389Z,4.87
2017-07-05T11:18:57.718Z,4.87
2017-07-05T11:21:25.021Z,5.90
2017-07-05T11:23:53.146Z,5.10
2017-07-05T11:26:20.464Z,4.53
2017-07-05T11:28:47.788Z,4.90
2017-07-05T11:31:15.110Z,4.57
2017-07-05T11:33:43.574Z,4.70
2017-07-05T11:36:10.915Z,4.73
2017-07-05T11:38:38.207Z,4.70
2017-07-05T11:41:05.576Z,4.20
2017-07-05T11:43:34.700Z,4.57
2017-07-05T11:46:02.014Z,4.00
2017-07-05T11:48:29.302Z,4.10
2017-07-05T11:50:58.026Z,4.13
2017-07-05T11:53:25.315Z,4.37
2017-07-05T11:55:53.979Z,5.10
2017-07-05T11:58:21.341Z,3.80
2017-07-05T12:00:48.676Z,3.70
2017-07-05T12:03:15.959Z,3.30
2017-07-05T12:05:43.269Z,3.67
2017-07-05T12:08:11.865Z,4.17
2017-07-05T12:10:39.201Z,3.27
2017-07-05T12:13:08.279Z,3.80
2017-07-05T12:15:35.795Z,3.47
2017-07-05T12:18:03.154Z,3.50
2017-07-05T12:20:30.476Z,3.70
2017-07-05T12:22:57.829Z,3.00
2017-07-05T12:25:25.108Z,3.80
2017-07-05T12:27:54.651Z,3.27
2017-07-05T12:30:21.974Z,3.83
2017-07-05T12:32:49.288Z,3.10
2017-07-05T12:35:16.580Z,3.10
2017-07-05T12:37:43.926Z,2.90
2017-07-05T12:40:17.914Z,3.20
2017-07-05T12:42:45.290Z,3.10
2017-07-05T12:45:12.626Z,3.10
2017-07-05T12:47:39.954Z,2.93
2017-07-05T12:50:07.270Z,3.10
2017-07-05T12:52:34.559Z,3.17
2017-07-05T12:55:01.894Z,3.03
2017-07-05T12:57:29.299Z,3.30
2017-07-05T12:59:56.609Z,3.30
2017-07-05T13:02:24.048Z,3.23
2017-07-05T13:04:51.424Z,3.27
2017-07-05T13:07:18.719Z,3.30
2017-07-05T13:09:48.066Z,2.70
2017-07-05T13:12:15.538Z,3.00
2017-07-05T13:14:42.859Z,3.00
2017-07-05T13:17:10.192Z,2.87
2017-07-05T13:19:37.497Z,2.80
2017-07-05T13:22:04.820Z,2.53
2017-07-05T13:24:32.130Z,3.10
2017-07-05T13:26:59.506Z,3.07
2017-07-05T13:29:26.799Z,2.93
2017-07-05T13:31:54.340Z,2.70
2017-07-05T13:34:21.783Z,2.50
2017-07-05T13:36:50.112Z,2.67
2017-07-05T13:39:17.782Z,2.60
2017-07-05T13:41:45.324Z,2.40
2017-07-05T13:44:12.934Z,2.30
2017-07-05T13:46:40.356Z,2.20
2017-07-05T13:49:07.672Z,2.50
2017-07-05T13:51:34.967Z,2.30
2017-07-05T13:54:02.355Z,2.10
2017-07-05T13:56:29.676Z,2.30
2017-07-05T13:58:56.983Z,2.53
2017-07-05T14:01:24.279Z,2.40
2017-07-05T14:03:51.592Z,2.30
2017-07-05T14:06:18.930Z,2.50
2017-07-05T14:08:46.300Z,2.37
2017-07-05T14:11:13.610Z,2.70
2017-07-05T14:13:40.937Z,2.60
2017-07-05T14:16:08.247Z,2.63
2017-07-05T14:18:35.614Z,2.50
2017-07-05T14:21:02.913Z,2.47
2017-07-05T14:23:30.284Z,2.87
2017-07-05T14:25:57.609Z,2.80
2017-07-05T14:28:25.151Z,2.90
2017-07-05T14:30:52.688Z,3.00
2017-07-05T14:33:19.982Z,2.80
2017-07-05T14:35:47.285Z,2.20
2017-07-05T14:38:14.639Z,2.57
2017-07-05T14:40:42.853Z,2.40
2017-07-05T14:43:10.166Z,2.50
2017-07-05T14:45:37.479Z,2.23
2017-07-05T14:48:04.778Z,2.10
2017-07-05T14:50:32.129Z,1.90
2017-07-05T14:52:59.764Z,2.20
2017-07-05T14:55:27.160Z,2.10
2017-07-05T14:57:54.530Z,2.20
2017-07-05T15:00:21.830Z,2.10
2017-07-05T15:02:50.051Z,2.10
2017-07-05T15:05:21.245Z,2.10
2017-07-05T15:07:48.546Z,2.20
2017-07-05T15:10:15.870Z,1.97
2017-07-05T15:12:43.189Z,2.13
2017-07-05T15:15:10.562Z,2.27
2017-07-05T15:17:39.558Z,2.20
2017-07-05T15:20:06.868Z,2.20
2017-07-05T15:22:34.526Z,1.90
2017-07-05T15:25:01.872Z,2.20
2017-07-05T15:27:29.516Z,1.67
2017-07-05T15:29:56.857Z,1.83
2017-07-05T15:32:24.230Z,1.87
2017-07-05T15:34:51.528Z,1.70
2017-07-05T15:37:18.848Z,1.80
2017-07-05T15:39:46.137Z,1.77
2017-07-05T15:42:13.670Z,1.77
2017-07-05T15:44:40.993Z,1.73
2017-07-05T15:47:08.293Z,1.60
2017-07-05T15:49:35.756Z,1.50
2017-07-05T15:52:03.047Z,1.83
2017-07-05T15:54:30.357Z,1.57
2017-07-05T15:56:57.683Z,1.57
2017-07-05T15:59:25.009Z,1.60
2017-07-05T16:01:52.310Z,1.70
2017-07-05T16:04:19.739Z,1.60
2017-07-05T16:06:47.056Z,1.60
2017-07-05T16:09:14.389Z,1.50
2017-07-05T16:11:41.704Z,1.57
2017-07-05T16:14:09.027Z,1.40
2017-07-05T16:16:36.763Z,1.50
2017-07-05T16:19:04.096Z,1.67
2017-07-05T16:21:31.500Z,1.80
2017-07-05T16:23:59.809Z,1.60
2017-07-05T16:26:27.139Z,1.30
2017-07-05T16:28:54.458Z,1.50
2017-07-05T16:31:21.789Z,1.40
2017-07-05T16:33:49.075Z,1.37
2017-07-05T16:36:16.392Z,1.40
2017-07-05T16:38:43.731Z,1.30
2017-07-05T16:41:11.042Z,1.53
2017-07-05T16:43:38.352Z,1.57
2017-07-05T16:46:05.966Z,1.67
2017-07-05T16:48:33.293Z,1.70
2017-07-05T16:51:00.627Z,1.57
2017-07-05T16:53:28.085Z,1.80
2017-07-05T16:55:55.385Z,1.70
2017-07-05T16:58:22.687Z,1.60
2017-07-05T17:00:53.535Z,2.30
2017-07-05T17:03:21.057Z,2.40
2017-07-05T17:05:48.394Z,1.90
2017-07-05T17:08:15.780Z,1.80
2017-07-05T17:10:43.076Z,1.90
2017-07-05T17:13:10.409Z,2.33
2017-07-05T17:15:37.753Z,1.77
2017-07-05T17:18:05.103Z,1.63
2017-07-05T17:20:32.733Z,1.80
2017-07-05T17:23:00.081Z,1.80
2017-07-05T17:25:27.402Z,1.90
2017-07-05T17:27:54.714Z,2.00
2017-07-05T17:30:22.191Z,2.00
2017-07-05T17:32:49.514Z,2.00
2017-07-05T17:35:16.807Z,2.13
2017-07-05T17:37:44.199Z,2.07
2017-07-05T17:40:11.502Z,1.87
2017-07-05T17:42:38.819Z,2.20
2017-07-05T17:45:06.154Z,1.97
2017-07-05T17:47:33.477Z,1.80
2017-07-05T17:50:00.929Z,1.80
2017-07-05T17:52:28.276Z,1.70
2017-07-05T17:54:55.612Z,1.90
2017-07-05T17:57:22.931Z,1.93
2017-07-05T17:59:50.245Z,1.33
2017-07-05T18:02:17.539Z,1.80
2017-07-05T18:04:46.017Z,1.80
2017-07-05T18:07:13.345Z,1.60
2017-07-05T18:09:41.904Z,1.60
2017-07-05T18:12:09.240Z,1.60
2017-07-05T18:14:36.835Z,1.67
2017-07-05T18:17:04.166Z,1.70
2017-07-05T18:19:31.471Z,2.00
2017-07-05T18:22:00.156Z,2.23
2017-07-05T18:24:27.518Z,2.20
2017-07-05T18:26:54.866Z,2.00
2017-07-05T18:29:22.177Z,2.17
2017-07-05T18:31:49.605Z,1.93
2017-07-05T18:34:20.640Z,2.00
2017-07-05T18:36:47.987Z,2.20
2017-07-05T18:39:15.322Z,2.50
2017-07-05T18:41:44.188Z,2.10
2017-07-05T18:44:13.417Z,2.00
2017-07-05T18:46:40.828Z,2.00
2017-07-05T18:49:08.567Z,2.00
2017-07-05T18:51:35.900Z,1.90
2017-07-05T18:54:04.726Z,1.80
2017-07-05T18:56:32.152Z,2.00
2017-07-05T18:59:10.639Z,2.20
2017-07-05T19:01:38.174Z,2.20
2017-07-05T19:04:05.465Z,2.57
2017-07-05T19:06:32.791Z,2.40
2017-07-05T19:09:00.096Z,2.07
2017-07-05T19:11:28.869Z,2.10
2017-07-05T19:13:56.306Z,1.90
2017-07-05T19:16:23.682Z,2.10
2017-07-05T19:18:50.994Z,1.90
2017-07-05T19:21:18.293Z,1.97
2017-07-05T19:23:45.645Z,2.00
2017-07-05T19:26:14.003Z,2.20
2017-07-05T19:28:41.348Z,2.10
2017-07-05T19:31:08.654Z,2.10
2017-07-05T19:33:36.029Z,2.10
2017-07-05T19:36:03.348Z,2.53
2017-07-05T19:38:30.690Z,2.37
2017-07-05T19:40:58.021Z,2.40
2017-07-05T19:43:26.261Z,2.63
2017-07-05T19:45:54.465Z,2.70
2017-07-05T19:48:21.777Z,2.20
2017-07-05T19:50:49.129Z,2.50
2017-07-05T19:53:17.461Z,2.87
2017-07-05T19:55:44.852Z,2.83
2017-07-05T19:58:13.390Z,2.70
2017-07-05T20:00:40.758Z,2.90
2017-07-05T20:03:08.355Z,3.00
2017-07-05T20:05:35.661Z,2.87
2017-07-05T20:08:02.988Z,3.10
2017-07-05T20:10:30.334Z,3.23
2017-07-05T20:12:57.647Z,3.23
2017-07-05T20:15:24.954Z,3.07
2017-07-05T20:17:52.261Z,2.63
2017-07-05T20:20:19.561Z,3.13
2017-07-05T20:22:46.924Z,2.97
2017-07-05T20:25:14.231Z,3.60
2017-07-05T20:27:41.554Z,3.30
2017-07-05T20:30:08.853Z,3.13
2017-07-05T20:32:37.969Z,3.60
2017-07-05T20:35:05.278Z,3.87
2017-07-05T20:37:32.662Z,3.90
2017-07-05T20:40:00.054Z,3.70
2017-07-05T20:42:27.399Z,3.93
2017-07-05T20:44:55.206Z,3.67
2017-07-05T20:47:22.516Z,4.00
2017-07-05T20:49:49.808Z,3.80
2017-07-05T20:52:18.962Z,3.97
2017-07-05T20:54:46.263Z,4.00
2017-07-05T20:57:16.996Z,3.70
2017-07-05T20:59:44.381Z,3.60
2017-07-05T21:02:13.471Z,4.30
2017-07-05T21:04:40.799Z,3.67
2017-07-05T21:07:08.113Z,3.87
2017-07-05T21:09:35.430Z,4.10
2017-07-05T21:12:02.750Z,4.50
2017-07-05T21:14:30.093Z,4.80
2017-07-05T21:16:57.431Z,4.07
2017-07-05T21:19:24.737Z,4.60
2017-07-05T21:21:52.983Z,4.30
2017-07-05T21:24:20.310Z,4.67
2017-07-05T21:26:48.386Z,4.77
2017-07-05T21:29:15.710Z,4.30
2017-07-05T21:31:43.322Z,4.73
2017-07-05T21:34:10.667Z,4.73
2017-07-05T21:36:37.992Z,4.67
2017-07-05T21:39:05.299Z,4.33
2017-07-05T21:41:33.580Z,4.40
2017-07-05T21:44:00.898Z,4.87
2017-07-05T21:46:28.227Z,4.60
2017-07-05T21:48:55.837Z,4.93
2017-07-05T21:51:23.267Z,5.10
2017-07-05T21:53:50.608Z,4.70
2017-07-05T21:56:17.901Z,5.20
2017-07-05T21:58:45.971Z,4.40
2017-07-05T22:01:13.353Z,4.97
2017-07-05T22:03:42.194Z,4.30
2017-07-05T22:06:09.501Z,5.37
2017-07-05T22:08:36.796Z,4.60
2017-07-05T22:11:04.125Z,5.00
2017-07-05T22:13:31.440Z,4.70
2017-07-05T22:15:58.750Z,4.57
2017-07-05T22:18:26.071Z,5.13
2017-07-05T22:20:54.313Z,5.30
2017-07-05T22:23:21.782Z,5.00
2017-07-05T22:25:49.128Z,5.70
2017-07-05T22:28:17.208Z,5.17
2017-07-05T22:30:44.562Z,4.87
2017-07-05T22:33:11.864Z,4.80
2017-07-05T22:35:39.180Z,4.83
2017-07-05T22:38:06.480Z,4.80
2017-07-05T22:40:33.767Z,4.60
2017-07-05T22:43:01.087Z,5.03
2017-07-05T22:45:28.414Z,5.57
2017-07-05T22:47:55.729Z,5.57
2017-07-05T22:50:23.044Z,5.50
2017-07-05T22:52:50.418Z,5.30
2017-07-05T22:55:17.723Z,5.67
2017-07-05T22:57:45.070Z,5.60
2017-07-05T23:00:12.394Z,5.57
2017-07-05T23:02:39.714Z,4.83
2017-07-05T23:05:07.010Z,5.57
2017-07-05T23:07:34.305Z,5.30
2017-07-05T23:10:02.612Z,5.37
2017-07-05T23:12:29.921Z,5.37
2017-07-05T23:14:57.221Z,5.00
2017-07-05T23:17:24.514Z,5.23
2017-07-05T23:19:51.870Z,5.10
2017-07-05T23:22:19.177Z,5.47
2017-07-05T23:24:46.490Z,5.53
2017-07-05T23:27:13.781Z,5.50
2017-07-05T23:29:41.105Z,5.50
2017-07-05T23:32:08.857Z,6.20
2017-07-05T23:34:36.156Z,5.50
2017-07-05T23:37:03.478Z,6.00
2017-07-05T23:39:30.798Z,6.00
2017-07-05T23:41:58.114Z,5.90
2017-07-05T23:44:25.401Z,6.07
2017-07-05T23:46:52.717Z,6.10
2017-07-05T23:49:20.037Z,5.77
2017-07-05T23:51:47.344Z,6.07
2017-07-05T23:54:14.638Z,5.77
2017-07-05T23:56:42.917Z,5.23
2017-07-05T23:59:10.253Z,6.00
